createdAt,value
2019-04-07T00:02:01.822Z,96845.56
2019-04-07T00:05:13.057Z,96842.97
2019-04-07T00:08:14.513Z,96845.02
2019-04-07T00:11:19.611Z,96846.99
2019-04-07T00:14:24.826Z,96840.34
2019-04-07T00:17:29.335Z,96841.22
2019-04-07T00:20:33.838Z,96841.73
2019-04-07T00:23:38.282Z,96845.75
2019-04-07T00:26:43.026Z,96852.14
2019-04-07T00:29:47.456Z,96847.54
2019-04-07T00:32:52.023Z,96842.43
2019-04-07T00:35:56.917Z,96843.66
2019-04-07T00:39:01.597Z,96846.33
2019-04-07T00:42:06.042Z,96842.93
2019-04-07T00:45:11.525Z,96843.30
2019-04-07T00:48:15.962Z,96843.82
2019-04-07T00:51:20.696Z,96846.20
2019-04-07T00:54:25.483Z,96842.48
2019-04-07T00:57:30.321Z,96838.39
2019-04-07T01:00:37.309Z,96840.02
2019-04-07T01:03:42.305Z,96846.98
2019-04-07T01:06:47.411Z,96835.75
2019-04-07T01:09:51.800Z,96837.91
2019-04-07T01:12:56.644Z,96833.97
2019-04-07T01:16:01.381Z,96835.97
2019-04-07T01:19:07.141Z,96841.25
2019-04-07T01:22:11.831Z,96834.36
2019-04-07T01:25:16.343Z,96836.73
2019-04-07T01:28:21.028Z,96833.38
2019-04-07T01:31:25.545Z,96831.77
2019-04-07T01:34:30.416Z,96836.50
2019-04-07T01:37:35.261Z,96830.30
2019-04-07T01:40:40.152Z,96824.44
2019-04-07T01:43:49.401Z,96827.97
2019-04-07T01:46:55.962Z,96828.28
2019-04-07T01:50:18.598Z,96828.13
2019-04-07T01:53:27.978Z,96826.20
2019-04-07T01:56:52.745Z,96831.76
2019-04-07T02:00:13.866Z,96824.86
2019-04-07T02:03:36.316Z,96825.19
2019-04-07T02:06:42.391Z,96829.02
2019-04-07T02:09:54.535Z,96835.69
2019-04-07T02:13:01.117Z,96832.30
2019-04-07T02:16:08.104Z,96830.80
2019-04-07T02:19:12.658Z,96828.59
2019-04-07T02:22:19.103Z,96830.23
2019-04-07T02:25:25.232Z,96826.80
2019-04-07T02:28:49.571Z,96828.22
2019-04-07T02:31:55.937Z,96837.06
2019-04-07T02:35:17.929Z,96842.55
2019-04-07T02:38:27.449Z,96843.06
2019-04-07T02:41:40.187Z,96835.66
2019-04-07T02:44:52.569Z,96835.72
2019-04-07T02:48:10.811Z,96835.20
2019-04-07T02:51:32.174Z,96837.13
2019-04-07T02:54:38.512Z,96840.88
2019-04-07T02:57:47.820Z,96841.64
2019-04-07T03:01:00.568Z,96840.60
2019-04-07T03:04:22.955Z,96846.72
2019-04-07T03:07:32.499Z,96851.48
2019-04-07T03:10:38.796Z,96851.30
2019-04-07T03:13:55.048Z,96846.50
2019-04-07T03:17:17.128Z,96844.07
2019-04-07T03:20:39.273Z,96837.19
2019-04-07T03:23:48.656Z,96840.89
2019-04-07T03:27:11.456Z,96845.47
2019-04-07T03:30:22.419Z,96847.03
2019-04-07T03:33:31.904Z,96855.84
2019-04-07T03:37:15.156Z,96864.95
2019-04-07T03:39:59.177Z,96862.00
2019-04-07T03:43:09.469Z,96873.69
2019-04-07T03:46:30.844Z,96873.13
2019-04-07T03:49:36.923Z,96872.63
2019-04-07T03:52:46.777Z,96870.22
2019-04-07T03:56:02.064Z,96878.53
2019-04-07T03:59:08.423Z,96873.78
2019-04-07T04:02:14.794Z,96876.23
2019-04-07T04:05:22.056Z,96881.31
2019-04-07T04:08:45.666Z,96882.05
2019-04-07T04:12:05.028Z,96878.94
2019-04-07T04:15:15.073Z,96889.81
2019-04-07T04:18:20.587Z,96886.84
2019-04-07T04:21:25.949Z,96894.88
2019-04-07T04:24:30.829Z,96892.23
2019-04-07T04:27:35.433Z,96897.05
2019-04-07T04:30:40.408Z,96896.52
2019-04-07T04:33:44.811Z,96904.22
2019-04-07T04:36:50.257Z,96902.33
2019-04-07T04:39:55.777Z,96909.96
2019-04-07T04:43:00.381Z,96913.08
2019-04-07T04:46:08.638Z,96910.17
2019-04-07T04:49:11.925Z,96916.58
2019-04-07T04:52:17.586Z,96918.95
2019-04-07T04:55:22.487Z,96933.30
2019-04-07T04:58:27.081Z,96930.64
2019-04-07T05:01:32.202Z,96934.14
2019-04-07T05:04:37.358Z,96929.34
2019-04-07T05:07:55.652Z,96934.91
2019-04-07T05:10:48.331Z,96936.48
2019-04-07T05:13:53.006Z,96940.20
2019-04-07T05:16:57.489Z,96949.50
2019-04-07T05:20:02.930Z,96945.23
2019-04-07T05:23:07.834Z,96948.41
2019-04-07T05:26:12.376Z,96955.81
2019-04-07T05:29:17.133Z,96955.25
2019-04-07T05:32:22.305Z,96952.27
2019-04-07T05:35:27.504Z,96951.69
2019-04-07T05:38:32.088Z,96958.29
2019-04-07T05:41:37.208Z,96956.44
2019-04-07T05:44:42.187Z,96961.98
2019-04-07T05:47:48.682Z,96964.50
2019-04-07T05:50:52.830Z,96967.09
2019-04-07T05:53:57.264Z,96969.18
2019-04-07T05:57:02.530Z,96969.69
2019-04-07T06:00:15.656Z,96977.59
2019-04-07T06:03:20.400Z,96979.16
2019-04-07T06:06:25.861Z,96975.69
2019-04-07T06:09:32.911Z,96975.61
2019-04-07T06:12:39.335Z,96979.73
2019-04-07T06:15:42.790Z,96976.36
2019-04-07T06:18:47.746Z,96983.16
2019-04-07T06:21:52.698Z,96978.08
2019-04-07T06:25:00.716Z,96990.35
2019-04-07T06:28:03.409Z,96991.47
2019-04-07T06:31:09.278Z,96988.06
2019-04-07T06:34:13.786Z,96987.66
2019-04-07T06:37:18.739Z,96989.05
2019-04-07T06:40:23.189Z,96992.78
2019-04-07T06:43:27.622Z,96990.97
2019-04-07T06:46:34.025Z,96985.98
2019-04-07T06:49:47.446Z,96987.83
2019-04-07T06:52:59.746Z,96987.75
2019-04-07T06:56:06.392Z,96982.37
2019-04-07T06:59:15.566Z,96983.87
2019-04-07T07:02:29.065Z,96982.64
2019-04-07T07:05:35.388Z,96971.98
2019-04-07T07:08:53.034Z,96973.58
2019-04-07T07:12:02.340Z,96969.80
2019-04-07T07:15:21.725Z,96973.66
2019-04-07T07:18:44.706Z,96970.16
2019-04-07T07:22:12.714Z,96967.95
2019-04-07T07:25:13.475Z,96969.16
2019-04-07T07:28:18.247Z,96963.53
2019-04-07T07:31:25.440Z,96972.86
2019-04-07T07:34:29.464Z,96979.99
2019-04-07T07:37:34.270Z,96982.28
2019-04-07T07:40:38.715Z,96978.39
2019-04-07T07:43:43.587Z,96987.89
2019-04-07T07:46:50.415Z,96985.95
2019-04-07T07:49:55.100Z,96986.61
2019-04-07T07:52:59.706Z,96988.04
2019-04-07T07:56:08.490Z,96985.30
2019-04-07T07:59:11.078Z,96992.55
2019-04-07T08:02:18.605Z,96991.21
2019-04-07T08:05:22.751Z,96999.05
2019-04-07T08:08:27.700Z,96999.69
2019-04-07T08:11:33.835Z,97000.17
2019-04-07T08:14:38.614Z,96992.48
2019-04-07T08:17:43.347Z,96997.81
2019-04-07T08:20:48.358Z,97000.29
2019-04-07T08:23:53.561Z,96991.96
2019-04-07T08:26:59.090Z,96991.51
2019-04-07T08:30:11.187Z,96988.66
2019-04-07T08:33:13.551Z,96994.52
2019-04-07T08:36:18.304Z,96997.59
2019-04-07T08:39:26.732Z,97005.55
2019-04-07T08:42:28.904Z,96999.45
2019-04-07T08:45:33.812Z,97003.11
2019-04-07T08:48:38.812Z,96998.73
2019-04-07T08:51:43.848Z,96996.07
2019-04-07T08:54:51.415Z,96996.48
2019-04-07T08:57:55.038Z,97002.62
2019-04-07T09:00:59.615Z,97002.39
2019-04-07T09:04:04.568Z,97005.05
2019-04-07T09:07:09.072Z,97003.88
2019-04-07T09:10:18.316Z,97001.20
2019-04-07T09:13:22.482Z,97004.51
2019-04-07T09:16:39.372Z,97005.39
2019-04-07T09:19:46.933Z,97011.08
2019-04-07T09:22:57.250Z,97010.89
2019-04-07T09:26:04.184Z,97011.97
2019-04-07T09:29:13.208Z,97009.15
2019-04-07T09:32:22.562Z,97005.74
2019-04-07T09:35:34.616Z,97010.80
2019-04-07T09:38:42.120Z,97007.04
2019-04-07T09:41:48.635Z,97013.20
2019-04-07T09:45:02.111Z,97026.10
2019-04-07T09:48:08.820Z,97020.23
2019-04-07T09:51:26.909Z,97025.55
2019-04-07T09:54:34.179Z,97023.17
2019-04-07T09:57:57.035Z,97030.41
2019-04-07T10:01:06.105Z,97027.30
2019-04-07T10:04:20.523Z,97035.92
2019-04-07T10:07:30.696Z,97032.41
2019-04-07T10:10:45.765Z,97036.94
2019-04-07T10:14:01.184Z,97031.80
2019-04-07T10:17:07.648Z,97032.41
2019-04-07T10:20:22.101Z,97037.89
2019-04-07T10:23:43.792Z,97031.02
2019-04-07T10:27:01.940Z,97028.91
2019-04-07T10:30:09.974Z,97027.02
2019-04-07T10:33:24.936Z,97029.41
2019-04-07T10:36:49.405Z,97026.53
2019-04-07T10:39:58.145Z,97021.45
2019-04-07T10:43:09.645Z,97022.49
2019-04-07T10:46:16.795Z,97015.59
2019-04-07T10:49:38.245Z,97014.79
2019-04-07T10:52:56.583Z,97014.31
2019-04-07T10:56:02.740Z,97018.91
2019-04-07T10:59:14.631Z,97016.73
2019-04-07T11:02:23.824Z,97012.46
2019-04-07T11:05:28.055Z,97017.16
2019-04-07T11:08:36.582Z,97019.85
2019-04-07T11:11:56.670Z,97020.17
2019-04-07T11:15:12.508Z,97012.53
2019-04-07T11:18:19.133Z,97006.41
2019-04-07T11:21:23.798Z,97004.44
2019-04-07T11:24:41.707Z,97009.30
2019-04-07T11:27:50.555Z,97001.09
2019-04-07T11:31:05.790Z,97008.58
2019-04-07T11:34:23.937Z,97006.43
2019-04-07T11:37:38.974Z,97003.14
2019-04-07T11:40:49.984Z,96998.03
2019-04-07T11:43:54.598Z,97000.09
2019-04-07T11:47:05.033Z,96999.05
2019-04-07T11:50:15.113Z,96996.91
2019-04-07T11:53:21.360Z,97000.86
2019-04-07T11:56:34.012Z,97004.92
2019-04-07T11:59:43.697Z,97004.89
2019-04-07T12:03:07.108Z,97011.23
2019-04-07T12:06:25.528Z,97005.16
2019-04-07T12:09:30.508Z,97001.05
2019-04-07T12:12:42.487Z,97006.72
2019-04-07T12:15:58.054Z,97004.55
2019-04-07T12:19:04.471Z,97006.51
2019-04-07T12:22:19.619Z,97008.12
2019-04-07T12:25:38.449Z,97001.69
2019-04-07T12:28:47.607Z,97006.48
2019-04-07T12:31:56.560Z,97004.38
2019-04-07T12:35:06.342Z,97006.26
2019-04-07T12:38:13.482Z,97009.39
2019-04-07T12:41:22.105Z,97000.51
2019-04-07T12:44:34.137Z,97003.67
2019-04-07T12:47:52.830Z,97001.88
2019-04-07T12:51:08.429Z,97004.81
2019-04-07T12:54:12.769Z,96999.52
2019-04-07T12:57:38.339Z,96996.53
2019-04-07T13:01:09.573Z,97002.16
2019-04-07T13:04:24.382Z,96996.78
2019-04-07T13:07:34.975Z,96988.50
2019-04-07T13:10:48.040Z,96986.48
2019-04-07T13:14:05.143Z,96988.25
2019-04-07T13:17:11.596Z,96987.50
2019-04-07T13:20:18.996Z,96991.05
2019-04-07T13:23:26.549Z,96984.03
2019-04-07T13:26:38.960Z,96999.23
2019-04-07T13:29:45.524Z,96999.52
2019-04-07T13:32:56.686Z,97006.53
2019-04-07T13:36:02.189Z,97003.91
2019-04-07T13:39:17.991Z,97011.50
2019-04-07T13:42:42.827Z,97007.25
2019-04-07T13:45:50.642Z,97009.45
2019-04-07T13:49:00.395Z,97014.09
2019-04-07T13:52:09.667Z,97010.00
2019-04-07T13:55:32.309Z,97012.39
2019-04-07T13:58:51.982Z,97014.28
2019-04-07T14:02:01.254Z,97017.65
2019-04-07T14:05:12.895Z,97023.96
2019-04-07T14:08:17.019Z,97026.92
2019-04-07T14:11:21.939Z,97030.98
2019-04-07T14:14:30.532Z,97023.77
2019-04-07T14:17:50.366Z,97025.58
2019-04-07T14:21:09.417Z,97023.08
2019-04-07T14:24:25.157Z,97030.22
2019-04-07T14:27:40.510Z,97030.01
2019-04-07T14:30:48.629Z,97029.77
2019-04-07T14:33:57.626Z,97031.72
2019-04-07T14:37:12.951Z,97033.52
2019-04-07T14:40:19.109Z,97031.27
2019-04-07T14:43:25.827Z,97034.53
2019-04-07T14:46:32.638Z,97032.97
2019-04-07T14:49:39.960Z,97037.83
2019-04-07T14:52:54.842Z,97033.31
2019-04-07T14:56:12.951Z,97035.19
2019-04-07T14:59:30.696Z,97036.87
2019-04-07T15:02:35.437Z,97041.17
2019-04-07T15:05:48.372Z,97038.13
2019-04-07T15:08:55.269Z,97038.35
2019-04-07T15:12:13.606Z,97033.27
2019-04-07T15:15:11.665Z,97037.33
2019-04-07T15:18:15.054Z,97038.90
2019-04-07T15:21:20.001Z,97040.47
2019-04-07T15:24:24.728Z,97042.86
2019-04-07T15:27:29.459Z,97041.95
2019-04-07T15:30:33.902Z,97040.69
2019-04-07T15:33:38.435Z,97040.91
2019-04-07T15:36:43.940Z,97037.75
2019-04-07T15:39:49.466Z,97037.08
2019-04-07T15:42:54.250Z,97043.17
2019-04-07T15:45:58.699Z,97037.41
2019-04-07T15:49:03.790Z,97046.66
2019-04-07T15:52:09.956Z,97047.67
2019-04-07T15:55:15.015Z,97049.70
2019-04-07T15:58:20.496Z,97051.40
2019-04-07T16:01:25.074Z,97054.22
2019-04-07T16:04:30.461Z,97057.38
2019-04-07T16:07:35.281Z,97055.10
2019-04-07T16:10:40.274Z,97061.61
2019-04-07T16:13:46.211Z,97064.84
2019-04-07T16:16:51.698Z,97067.78
2019-04-07T16:19:56.842Z,97066.50
2019-04-07T16:23:01.581Z,97068.28
2019-04-07T16:26:06.645Z,97069.17
2019-04-07T16:29:11.565Z,97074.45
2019-04-07T16:32:15.966Z,97072.22
2019-04-07T16:35:20.717Z,97079.24
2019-04-07T16:38:25.430Z,97081.82
2019-04-07T16:41:29.882Z,97083.30
2019-04-07T16:44:37.993Z,97083.63
2019-04-07T16:47:40.864Z,97092.91
2019-04-07T16:50:46.269Z,97089.47
2019-04-07T16:53:52.083Z,97089.78
2019-04-07T16:56:58.140Z,97089.91
2019-04-07T17:00:03.677Z,97091.44
2019-04-07T17:03:09.958Z,97093.34
2019-04-07T17:06:14.715Z,97091.50
2019-04-07T17:09:24.723Z,97097.06
2019-04-07T17:12:27.741Z,97100.95
2019-04-07T17:15:38.188Z,97107.41
2019-04-07T17:18:42.930Z,97111.44
2019-04-07T17:21:47.965Z,97106.00
2019-04-07T17:24:52.393Z,97110.69
2019-04-07T17:28:02.225Z,97118.48
2019-04-07T17:31:03.615Z,97121.52
2019-04-07T17:34:10.860Z,97124.10
2019-04-07T17:37:15.070Z,97124.34
2019-04-07T17:40:22.592Z,97122.07
2019-04-07T17:43:49.413Z,97129.03
2019-04-07T17:47:06.565Z,97119.19
2019-04-07T17:50:31.408Z,97125.09
2019-04-07T17:53:40.132Z,97123.80
2019-04-07T17:57:01.191Z,97129.44
2019-04-07T18:00:18.548Z,97125.66
2019-04-07T18:03:43.961Z,97140.73
2019-04-07T18:06:51.320Z,97135.47
2019-04-07T18:10:13.597Z,97139.19
2019-04-07T18:13:39.791Z,97144.17
2019-04-07T18:16:52.760Z,97144.38
2019-04-07T18:20:15.824Z,97147.62
2019-04-07T18:23:24.038Z,97155.39
2019-04-07T18:26:46.781Z,97163.23
2019-04-07T18:30:05.510Z,97167.67
2019-04-07T18:33:17.583Z,97172.39
2019-04-07T18:36:35.973Z,97181.36
2019-04-07T18:40:01.883Z,97183.95
2019-04-07T18:43:12.205Z,97185.27
2019-04-07T18:46:23.694Z,97198.64
2019-04-07T18:49:46.517Z,97201.56
2019-04-07T18:53:04.468Z,97204.66
2019-04-07T18:56:27.105Z,97214.11
2019-04-07T18:59:57.834Z,97220.70
2019-04-07T19:02:57.839Z,97226.97
2019-04-07T19:06:08.260Z,97226.18
2019-04-07T19:09:23.916Z,97228.30
2019-04-07T19:12:49.047Z,97228.27
2019-04-07T19:16:13.511Z,97233.36
2019-04-07T19:19:34.115Z,97233.91
2019-04-07T19:22:40.200Z,97241.85
2019-04-07T19:25:53.749Z,97243.91
2019-04-07T19:29:08.401Z,97248.90
2019-04-07T19:32:31.340Z,97247.55
2019-04-07T19:35:46.266Z,97247.97
2019-04-07T19:38:52.672Z,97256.22
2019-04-07T19:42:11.205Z,97254.78
2019-04-07T19:48:50.280Z,97259.30
2019-04-07T19:52:12.784Z,97259.52
2019-04-07T19:55:24.938Z,97255.65
2019-04-07T19:58:38.119Z,97260.00
2019-04-07T20:01:46.027Z,97262.53
2019-04-07T20:05:02.474Z,97262.47
2019-04-07T20:08:08.560Z,97263.96
2019-04-07T20:11:13.826Z,97262.87
2019-04-07T20:14:26.274Z,97266.28
2019-04-07T20:17:45.259Z,97264.83
2019-04-07T20:21:01.130Z,97266.34
2019-04-07T20:24:07.032Z,97259.45
2019-04-07T20:27:29.771Z,97262.38
2019-04-07T20:30:51.302Z,97259.20
2019-04-07T20:34:12.612Z,97263.54
2019-04-07T20:37:18.703Z,97269.38
2019-04-07T20:40:25.809Z,97266.59
2019-04-07T20:43:38.412Z,97270.76
2019-04-07T20:46:44.866Z,97273.08
2019-04-07T20:49:56.869Z,97272.96
2019-04-07T20:53:12.474Z,97283.89
2019-04-07T20:56:13.023Z,97283.19
2019-04-07T20:59:27.064Z,97288.78
2019-04-07T21:02:35.016Z,97290.90
2019-04-07T21:05:58.161Z,97289.02
2019-04-07T21:09:10.272Z,97288.59
2019-04-07T21:12:25.333Z,97292.41
2019-04-07T21:15:41.154Z,97296.93
2019-04-07T21:18:45.544Z,97305.94
2019-04-07T21:22:01.263Z,97294.28
2019-04-07T21:25:11.927Z,97297.84
2019-04-07T21:28:24.613Z,97300.80
2019-04-07T21:31:28.937Z,97300.57
2019-04-07T21:34:36.473Z,97300.66
2019-04-07T21:37:58.893Z,97304.46
2019-04-07T21:41:13.363Z,97306.98
2019-04-07T21:44:28.347Z,97307.87
2019-04-07T21:47:37.467Z,97297.48
2019-04-07T21:50:43.451Z,97294.78
2019-04-07T21:53:55.104Z,97301.82
2019-04-07T21:57:02.325Z,97299.02
2019-04-07T22:00:10.649Z,97300.65
2019-04-07T22:03:23.610Z,97309.95
2019-04-07T22:06:31.124Z,97304.28
2019-04-07T22:09:51.868Z,97310.69
2019-04-07T22:13:00.241Z,97309.17
2019-04-07T22:16:04.217Z,97308.44
2019-04-07T22:19:11.061Z,97310.76
2019-04-07T22:22:14.943Z,97316.44
2019-04-07T22:25:26.513Z,97316.92
2019-04-07T22:28:31.735Z,97321.02
2019-04-07T22:31:43.920Z,97319.68
2019-04-07T22:34:47.045Z,97325.98
2019-04-07T22:37:51.757Z,97330.20
2019-04-07T22:40:57.078Z,97334.55
2019-04-07T22:44:01.530Z,97335.81
2019-04-07T22:47:07.013Z,97338.45
2019-04-07T22:50:12.816Z,97340.46
2019-04-07T22:53:21.297Z,97354.09
2019-04-07T22:56:24.356Z,97357.50
2019-04-07T22:59:28.927Z,97352.48
2019-04-07T23:02:33.691Z,97345.97
2019-04-07T23:05:38.123Z,97351.95
2019-04-07T23:08:43.257Z,97359.97
2019-04-07T23:11:48.235Z,97356.56
2019-04-07T23:14:53.164Z,97366.55
2019-04-07T23:17:57.965Z,97364.45
2019-04-07T23:21:03.115Z,97368.84
2019-04-07T23:24:07.766Z,97365.80
2019-04-07T23:27:12.472Z,97377.00
2019-04-07T23:30:23.609Z,97366.69
2019-04-07T23:33:28.108Z,97374.66
2019-04-07T23:36:32.549Z,97370.59
2019-04-07T23:39:37.715Z,97375.50
2019-04-07T23:42:42.241Z,97383.98
2019-04-07T23:45:47.521Z,97382.41
2019-04-07T23:48:52.430Z,97381.55
2019-04-07T23:51:57.164Z,97384.42
2019-04-07T23:55:02.450Z,97388.28
2019-04-07T23:58:06.946Z,97383.89
